Time;durP1;ratioP1;P1;durP2;ratioP2;P2;SDS_P1;SDS_P2;PMS_P1;PMS_P2;Temp;Humidity;BMP_temperature;BMP_pressure;BME280_temperature;BME280_humidity;BME280_pressure;Samples;Min_cycle;Max_cycle;Signal;HPM_P1;HPM_P2
2023/04/26 00:01:13;;;;;;;5.63;2.20;;;;;;;;;;5042176;28;20088;-75
2023/04/26 00:03:39;;;;;;;4.93;1.93;;;;;;;;;;5051515;28;20033;-76
2023/04/26 00:06:08;;;;;;;2.93;1.47;;;;;;;;;;5051169;28;20040;-75
2023/04/26 00:08:34;;;;;;;6.57;2.67;;;;;;;;;;5033531;28;20035;-76
2023/04/26 00:11:00;;;;;;;5.07;2.17;;;;;;;;;;5051156;28;20043;-76
2023/04/26 00:13:26;;;;;;;7.30;2.37;;;;;;;;;;5051526;28;20024;-76
2023/04/26 00:15:51;;;;;;;11.07;2.20;;;;;;;;;;5050902;28;20035;-76
2023/04/26 00:18:17;;;;;;;12.50;2.93;;;;;;;;;;5051813;28;20632;-75
2023/04/26 00:20:42;;;;;;;6.00;2.30;;;;;;;;;;5033194;28;20025;-76
2023/04/26 00:23:09;;;;;;;7.30;1.83;;;;;;;;;;5033378;28;20140;-76
2023/04/26 00:25:36;;;;;;;11.07;2.70;;;;;;;;;;5033749;28;20025;-76
2023/04/26 00:28:02;;;;;;;7.20;2.20;;;;;;;;;;5033911;28;20021;-76
2023/04/26 00:30:27;;;;;;;5.47;2.33;;;;;;;;;;5034007;28;20024;-76
2023/04/26 00:32:53;;;;;;;5.37;2.60;;;;;;;;;;5051421;28;20045;-76
2023/04/26 00:35:19;;;;;;;6.33;2.20;;;;;;;;;;5052266;28;20025;-75
2023/04/26 00:37:45;;;;;;;11.53;3.13;;;;;;;;;;5037070;28;20487;-76
2023/04/26 00:40:11;;;;;;;4.83;2.20;;;;;;;;;;5035368;28;20029;-75
2023/04/26 00:42:38;;;;;;;8.60;2.70;;;;;;;;;;5039701;28;20036;-75
2023/04/26 00:45:05;;;;;;;9.83;2.23;;;;;;;;;;5040271;28;20045;-75
2023/04/26 00:47:31;;;;;;;10.83;2.40;;;;;;;;;;5035888;28;20082;-76
2023/04/26 00:49:57;;;;;;;4.83;2.60;;;;;;;;;;5032733;28;20024;-76
2023/04/26 00:52:23;;;;;;;6.23;2.40;;;;;;;;;;5050576;28;20118;-76
2023/04/26 00:54:50;;;;;;;4.73;2.37;;;;;;;;;;5032343;28;20028;-75
2023/04/26 00:57:16;;;;;;;6.13;2.70;;;;;;;;;;5032071;28;20065;-75
2023/04/26 00:59:41;;;;;;;6.03;2.30;;;;;;;;;;5032938;28;20494;-75
2023/04/26 01:02:07;;;;;;;4.67;2.73;;;;;;;;;;5032530;28;20512;-75
2023/04/26 01:04:33;;;;;;;6.73;2.63;;;;;;;;;;5032444;28;20422;-75
2023/04/26 01:07:00;;;;;;;6.03;3.20;;;;;;;;;;5015692;28;20634;-75
2023/04/26 01:09:28;;;;;;;5.90;2.97;;;;;;;;;;5032273;28;20027;-75
2023/04/26 01:11:56;;;;;;;6.60;2.70;;;;;;;;;;5033500;28;20090;-76
2023/04/26 01:14:23;;;;;;;8.97;2.70;;;;;;;;;;5035116;28;20679;-75
2023/04/26 01:16:49;;;;;;;4.43;2.43;;;;;;;;;;5035385;28;20025;-75
2023/04/26 01:19:15;;;;;;;4.47;2.47;;;;;;;;;;5043378;28;20084;-75
2023/04/26 01:21:41;;;;;;;6.97;2.83;;;;;;;;;;5039858;28;20086;-75
2023/04/26 01:24:12;;;;;;;9.07;2.63;;;;;;;;;;5034593;28;20017;-75
2023/04/26 01:26:45;;;;;;;6.67;2.90;;;;;;;;;;5051557;28;20402;-75
2023/04/26 01:29:18;;;;;;;7.10;2.70;;;;;;;;;;5050886;28;20053;-76
2023/04/26 01:31:45;;;;;;;9.27;3.37;;;;;;;;;;5030217;28;20055;-75
2023/04/26 01:34:10;;;;;;;5.90;2.80;;;;;;;;;;5028946;28;20477;-75
2023/04/26 01:36:36;;;;;;;5.70;2.57;;;;;;;;;;5030097;28;20025;-75
2023/04/26 01:39:02;;;;;;;5.90;2.73;;;;;;;;;;5028465;28;20027;-76
2023/04/26 01:41:28;;;;;;;4.77;2.87;;;;;;;;;;5028715;28;20040;-76
2023/04/26 01:43:54;;;;;;;3.60;2.77;;;;;;;;;;5028225;28;20112;-76
2023/04/26 01:46:20;;;;;;;7.17;2.50;;;;;;;;;;5029380;28;20379;-76
2023/04/26 01:48:46;;;;;;;8.90;3.40;;;;;;;;;;5029078;28;20098;-76
2023/04/26 01:51:11;;;;;;;4.87;2.73;;;;;;;;;;5027851;28;20025;-76
2023/04/26 01:53:37;;;;;;;8.10;2.80;;;;;;;;;;5028500;28;20040;-75
2023/04/26 01:56:04;;;;;;;8.00;2.80;;;;;;;;;;5029651;28;20017;-76
2023/04/26 01:58:30;;;;;;;5.33;2.77;;;;;;;;;;5028331;28;20052;-76
2023/04/26 02:00:56;;;;;;;8.43;3.30;;;;;;;;;;5028307;28;20477;-76
2023/04/26 02:03:22;;;;;;;6.43;3.23;;;;;;;;;;5029578;28;20473;-76
2023/04/26 02:05:47;;;;;;;7.77;2.93;;;;;;;;;;5027693;28;20037;-76
2023/04/26 02:08:13;;;;;;;6.07;2.90;;;;;;;;;;5029557;28;20032;-76
2023/04/26 02:10:38;;;;;;;7.80;2.77;;;;;;;;;;5030032;28;20022;-76
2023/04/26 02:13:07;;;;;;;9.30;3.57;;;;;;;;;;5028365;28;20369;-76
2023/04/26 02:15:33;;;;;;;8.47;3.27;;;;;;;;;;5030468;28;20159;-76
2023/04/26 02:17:58;;;;;;;7.43;3.37;;;;;;;;;;5029975;28;20104;-76
2023/04/26 02:20:23;;;;;;;12.20;3.33;;;;;;;;;;5028007;28;20033;-76
2023/04/26 02:22:49;;;;;;;4.83;3.20;;;;;;;;;;5029036;28;20026;-76
2023/04/26 02:25:15;;;;;;;8.57;3.00;;;;;;;;;;5027552;28;20466;-76
2023/04/26 02:27:40;;;;;;;4.60;3.13;;;;;;;;;;5027719;28;20029;-76
2023/04/26 02:30:07;;;;;;;7.33;3.30;;;;;;;;;;5027563;28;20103;-76
2023/04/26 02:32:32;;;;;;;10.80;3.77;;;;;;;;;;5027657;28;20055;-76
2023/04/26 02:34:58;;;;;;;8.97;3.37;;;;;;;;;;5027794;28;20021;-76
2023/04/26 02:37:23;;;;;;;5.17;2.80;;;;;;;;;;5029469;28;20079;-76
2023/04/26 02:39:50;;;;;;;6.57;2.87;;;;;;;;;;5029601;28;20036;-76
2023/04/26 02:42:16;;;;;;;7.07;3.20;;;;;;;;;;5027832;28;20038;-76
2023/04/26 02:44:41;;;;;;;4.60;2.80;;;;;;;;;;5028148;28;20022;-76
2023/04/26 02:47:07;;;;;;;8.43;3.00;;;;;;;;;;5027878;28;20510;-76
2023/04/26 02:49:33;;;;;;;10.10;3.60;;;;;;;;;;5028459;28;20037;-76
2023/04/26 02:51:58;;;;;;;8.47;3.43;;;;;;;;;;5027679;28;20033;-76
2023/04/26 02:54:24;;;;;;;5.07;3.07;;;;;;;;;;5027933;28;20358;-76
2023/04/26 02:56:50;;;;;;;7.47;3.50;;;;;;;;;;5028514;28;20462;-77
2023/04/26 02:59:15;;;;;;;14.60;4.30;;;;;;;;;;5031755;28;20032;-76
2023/04/26 03:01:41;;;;;;;12.50;3.33;;;;;;;;;;5035814;28;20385;-77
2023/04/26 03:04:07;;;;;;;9.40;3.13;;;;;;;;;;5038867;28;20701;-75
2023/04/26 03:06:32;;;;;;;6.87;2.90;;;;;;;;;;5038172;28;20029;-75
2023/04/26 03:08:58;;;;;;;8.10;4.10;;;;;;;;;;5037202;28;20482;-76
2023/04/26 03:11:23;;;;;;;8.47;3.67;;;;;;;;;;5033048;28;20030;-75
2023/04/26 03:13:49;;;;;;;5.03;2.60;;;;;;;;;;5032517;28;20033;-76
2023/04/26 03:16:15;;;;;;;7.20;2.60;;;;;;;;;;5032389;28;20068;-75
2023/04/26 03:18:40;;;;;;;5.93;2.93;;;;;;;;;;5034547;28;20021;-75
2023/04/26 03:21:06;;;;;;;5.07;2.80;;;;;;;;;;5032975;28;20538;-76
2023/04/26 03:23:31;;;;;;;4.97;2.90;;;;;;;;;;5013646;28;20420;-75
2023/04/26 03:25:57;;;;;;;7.30;2.97;;;;;;;;;;5012142;28;20084;-75
2023/04/26 03:28:23;;;;;;;11.63;3.30;;;;;;;;;;5032278;28;20091;-75
2023/04/26 03:30:49;;;;;;;7.27;3.20;;;;;;;;;;5034103;28;20045;-76
2023/04/26 03:33:15;;;;;;;7.97;3.17;;;;;;;;;;5052184;28;20025;-75
2023/04/26 03:35:42;;;;;;;9.30;4.10;;;;;;;;;;5034290;28;20477;-75
2023/04/26 03:38:07;;;;;;;8.33;3.50;;;;;;;;;;5051804;28;20067;-76
2023/04/26 03:40:33;;;;;;;8.50;3.13;;;;;;;;;;5034358;28;20029;-76
2023/04/26 03:42:58;;;;;;;6.40;3.30;;;;;;;;;;5034422;28;20035;-76
2023/04/26 03:45:25;;;;;;;9.03;3.37;;;;;;;;;;5034034;28;20029;-76
2023/04/26 03:47:51;;;;;;;4.90;3.07;;;;;;;;;;5034234;28;20057;-76
2023/04/26 03:50:16;;;;;;;6.37;3.63;;;;;;;;;;5051694;28;20068;-75
2023/04/26 03:52:42;;;;;;;5.07;3.80;;;;;;;;;;5030203;28;20041;-76
2023/04/26 03:55:09;;;;;;;7.50;3.70;;;;;;;;;;5032006;28;20021;-77
2023/04/26 03:57:35;;;;;;;10.90;3.67;;;;;;;;;;5042090;28;20036;-75
2023/04/26 04:00:00;;;;;;;4.43;3.00;;;;;;;;;;5033383;28;20040;-75
2023/04/26 04:02:26;;;;;;;9.10;3.63;;;;;;;;;;5033295;28;20082;-75
2023/04/26 04:04:52;;;;;;;8.23;3.30;;;;;;;;;;5033298;28;20354;-76
2023/04/26 04:07:18;;;;;;;39.27;6.03;;;;;;;;;;5050851;28;20052;-76
2023/04/26 04:09:43;;;;;;;16.43;3.93;;;;;;;;;;5051290;28;20103;-76
2023/04/26 04:12:09;;;;;;;21.43;5.10;;;;;;;;;;5048557;28;20234;-75
2023/04/26 04:14:34;;;;;;;9.20;3.67;;;;;;;;;;5051250;28;20029;-76
2023/04/26 04:17:00;;;;;;;11.63;5.93;;;;;;;;;;5032888;28;20123;-75
2023/04/26 04:19:26;;;;;;;9.03;3.70;;;;;;;;;;5049183;28;20032;-76
2023/04/26 04:21:53;;;;;;;6.13;3.03;;;;;;;;;;5050704;28;20070;-76
2023/04/26 04:24:19;;;;;;;8.87;3.03;;;;;;;;;;5050350;28;20112;-77
2023/04/26 04:26:44;;;;;;;5.23;2.53;;;;;;;;;;5032676;28;20538;-77
2023/04/26 04:29:10;;;;;;;7.97;4.83;;;;;;;;;;5032709;28;20040;-77
2023/04/26 04:31:35;;;;;;;6.67;3.30;;;;;;;;;;5033239;28;20505;-76
2023/04/26 04:34:01;;;;;;;8.53;3.30;;;;;;;;;;5033101;28;20109;-76
2023/04/26 04:36:27;;;;;;;10.03;3.20;;;;;;;;;;5032931;28;20033;-76
2023/04/26 04:38:52;;;;;;;6.40;3.53;;;;;;;;;;5032517;28;20036;-76
2023/04/26 04:41:21;;;;;;;5.10;2.97;;;;;;;;;;5050543;28;20032;-76
2023/04/26 04:43:46;;;;;;;7.03;3.23;;;;;;;;;;5015435;28;20127;-75
2023/04/26 04:46:12;;;;;;;3.73;2.90;;;;;;;;;;5012603;28;20033;-75
2023/04/26 04:48:37;;;;;;;12.03;4.20;;;;;;;;;;5029190;28;20039;-76
2023/04/26 04:51:03;;;;;;;4.50;3.13;;;;;;;;;;5051352;28;20036;-76
2023/04/26 04:53:29;;;;;;;8.20;3.70;;;;;;;;;;5033579;28;20025;-76
2023/04/26 04:55:55;;;;;;;9.00;3.67;;;;;;;;;;5051809;28;20128;-76
2023/04/26 04:58:21;;;;;;;6.63;3.43;;;;;;;;;;5050656;28;20025;-76
2023/04/26 05:00:47;;;;;;;6.13;3.73;;;;;;;;;;5032996;28;20056;-76
2023/04/26 05:03:13;;;;;;;9.57;3.67;;;;;;;;;;5033242;28;20531;-75
2023/04/26 05:05:39;;;;;;;9.63;3.67;;;;;;;;;;5033580;28;20076;-77
2023/04/26 05:08:08;;;;;;;5.33;3.73;;;;;;;;;;5032756;28;20116;-76
2023/04/26 05:10:34;;;;;;;6.03;4.10;;;;;;;;;;5032872;28;20519;-78
2023/04/26 05:13:00;;;;;;;6.73;3.83;;;;;;;;;;5050621;28;20021;-77
2023/04/26 05:15:25;;;;;;;8.37;3.40;;;;;;;;;;5050245;28;20166;-77
2023/04/26 05:17:51;;;;;;;5.53;3.70;;;;;;;;;;5033748;28;20028;-77
2023/04/26 05:20:17;;;;;;;10.30;3.80;;;;;;;;;;5012475;28;20494;-76
2023/04/26 05:22:42;;;;;;;8.00;3.73;;;;;;;;;;5022333;28;20029;-77
2023/04/26 05:25:09;;;;;;;6.77;2.97;;;;;;;;;;5059385;28;20025;-77
2023/04/26 05:27:36;;;;;;;8.73;3.53;;;;;;;;;;5039874;28;20048;-76
2023/04/26 05:30:03;;;;;;;8.90;4.00;;;;;;;;;;5033738;28;20118;-75
2023/04/26 05:32:29;;;;;;;8.13;3.83;;;;;;;;;;5031739;28;20120;-77
2023/04/26 05:34:54;;;;;;;9.40;3.20;;;;;;;;;;5050763;28;20250;-76
2023/04/26 05:37:20;;;;;;;8.43;4.00;;;;;;;;;;5032492;28;20033;-77
2023/04/26 05:39:46;;;;;;;6.17;3.47;;;;;;;;;;5013675;28;20076;-76
2023/04/26 05:42:11;;;;;;;6.43;3.67;;;;;;;;;;5048252;28;20048;-77
2023/04/26 05:44:38;;;;;;;6.37;3.33;;;;;;;;;;5056091;28;20107;-76
2023/04/26 05:47:04;;;;;;;6.73;3.73;;;;;;;;;;5032600;28;20094;-75
2023/04/26 05:49:30;;;;;;;9.77;4.20;;;;;;;;;;5034785;28;20574;-76
2023/04/26 05:51:57;;;;;;;7.93;3.63;;;;;;;;;;5032573;28;20412;-76
2023/04/26 05:54:23;;;;;;;5.67;4.27;;;;;;;;;;5030957;28;20035;-78
2023/04/26 05:56:48;;;;;;;5.37;3.73;;;;;;;;;;5031542;28;20029;-78
2023/04/26 05:59:14;;;;;;;7.90;3.83;;;;;;;;;;5044868;28;20021;-74
2023/04/26 06:01:39;;;;;;;13.13;4.13;;;;;;;;;;5030093;28;20089;-76
2023/04/26 06:04:05;;;;;;;8.57;4.70;;;;;;;;;;5044579;28;20016;-77
2023/04/26 06:06:31;;;;;;;5.87;3.73;;;;;;;;;;5049726;28;20028;-76
2023/04/26 06:08:58;;;;;;;8.17;3.80;;;;;;;;;;5030637;28;20029;-74
2023/04/26 06:11:23;;;;;;;9.40;3.70;;;;;;;;;;5045986;28;20037;-76
2023/04/26 06:13:49;;;;;;;7.10;3.80;;;;;;;;;;5026663;28;20031;-76
2023/04/26 06:16:16;;;;;;;8.83;3.83;;;;;;;;;;5031197;28;20108;-75
2023/04/26 06:18:41;;;;;;;8.20;3.83;;;;;;;;;;5044101;28;20112;-77
2023/04/26 06:21:07;;;;;;;9.83;4.00;;;;;;;;;;5027972;28;20071;-77
2023/04/26 06:23:32;;;;;;;15.47;4.43;;;;;;;;;;5038309;28;20417;-75
2023/04/26 06:25:59;;;;;;;10.87;4.17;;;;;;;;;;5037196;28;20067;-75
2023/04/26 06:28:25;;;;;;;9.07;4.37;;;;;;;;;;5024611;28;20055;-75
2023/04/26 06:30:52;;;;;;;6.33;3.93;;;;;;;;;;5043317;28;20397;-75
2023/04/26 06:33:17;;;;;;;10.97;4.43;;;;;;;;;;5021263;28;20033;-76
2023/04/26 06:35:45;;;;;;;10.87;4.20;;;;;;;;;;5036674;28;20407;-75
2023/04/26 06:38:11;;;;;;;9.13;3.60;;;;;;;;;;5046317;28;20029;-76
2023/04/26 06:40:37;;;;;;;6.77;4.00;;;;;;;;;;5038941;28;20104;-76
2023/04/26 06:43:02;;;;;;;15.53;7.00;;;;;;;;;;5028177;28;20056;-75
2023/04/26 06:45:28;;;;;;;6.17;3.90;;;;;;;;;;5030401;28;20021;-76
2023/04/26 06:47:54;;;;;;;7.33;4.97;;;;;;;;;;5027313;28;20045;-76
2023/04/26 06:50:20;;;;;;;8.50;4.20;;;;;;;;;;5022823;28;20404;-75
2023/04/26 06:52:45;;;;;;;9.17;4.83;;;;;;;;;;5045990;28;20671;-76
2023/04/26 06:55:11;;;;;;;7.57;4.13;;;;;;;;;;5020928;28;20025;-77
2023/04/26 06:57:36;;;;;;;6.10;3.53;;;;;;;;;;5019610;28;20033;-77
2023/04/26 07:00:03;;;;;;;9.63;4.50;;;;;;;;;;5042891;28;20309;-78
2023/04/26 07:02:29;;;;;;;7.70;4.47;;;;;;;;;;5036891;28;20040;-77
2023/04/26 07:04:56;;;;;;;4.87;3.60;;;;;;;;;;5032408;28;20127;-77
2023/04/26 07:07:21;;;;;;;7.73;4.03;;;;;;;;;;5038860;28;20190;-76
2023/04/26 07:09:47;;;;;;;10.93;3.87;;;;;;;;;;5033758;28;20513;-75
2023/04/26 07:12:13;;;;;;;6.97;4.50;;;;;;;;;;5039118;28;20092;-77
2023/04/26 07:14:42;;;;;;;8.97;4.10;;;;;;;;;;5041146;28;20033;-74
2023/04/26 07:17:09;;;;;;;6.13;3.87;;;;;;;;;;5057497;28;20068;-74
2023/04/26 07:19:40;;;;;;;7.37;3.77;;;;;;;;;;5063388;28;20051;-76
2023/04/26 07:22:06;;;;;;;8.03;4.53;;;;;;;;;;5030567;28;20025;-75
2023/04/26 07:24:31;;;;;;;12.20;4.57;;;;;;;;;;5024373;28;20064;-76
2023/04/26 07:26:57;;;;;;;7.50;4.72;;;;;;;;;;5026285;28;20039;-77
2023/04/26 07:29:23;;;;;;;9.48;4.75;;;;;;;;;;5027233;28;20039;-79
2023/04/26 07:31:48;;;;;;;6.00;4.38;;;;;;;;;;5020014;28;20065;-76
2023/04/26 07:34:15;;;;;;;7.85;4.20;;;;;;;;;;5030021;28;20036;-77
2023/04/26 07:36:40;;;;;;;7.78;4.00;;;;;;;;;;5047981;28;20439;-79
2023/04/26 07:39:09;;;;;;;9.05;4.95;;;;;;;;;;5024338;28;20033;-78
2023/04/26 07:41:35;;;;;;;10.88;4.70;;;;;;;;;;5029113;28;20036;-76
2023/04/26 07:44:00;;;;;;;5.93;4.47;;;;;;;;;;5022528;28;20033;-76
2023/04/26 07:46:28;;;;;;;9.75;5.05;;;;;;;;;;5040846;28;20045;-77
2023/04/26 07:48:53;;;;;;;6.97;4.20;;;;;;;;;;5042048;28;20108;-78
2023/04/26 07:51:19;;;;;;;12.75;5.28;;;;;;;;;;5024214;28;20127;-76
2023/04/26 07:53:45;;;;;;;12.77;4.70;;;;;;;;;;5042861;28;20029;-78
2023/04/26 07:56:11;;;;;;;5.47;4.23;;;;;;;;;;5026057;28;20086;-75
2023/04/26 07:58:38;;;;;;;6.17;3.93;;;;;;;;;;5043978;28;20029;-76
2023/04/26 08:01:04;;;;;;;10.25;3.90;;;;;;;;;;5038653;28;20036;-78
2023/04/26 08:03:32;;;;;;;7.20;4.18;;;;;;;;;;5041745;28;20037;-77
2023/04/26 08:05:58;;;;;;;12.30;4.47;;;;;;;;;;5032115;28;20059;-78
2023/04/26 08:08:28;;;;;;;5.35;4.28;;;;;;;;;;5026663;28;20072;-76
2023/04/26 08:10:54;;;;;;;7.20;4.60;;;;;;;;;;5035918;28;20036;-78
2023/04/26 08:13:20;;;;;;;7.03;4.57;;;;;;;;;;5029045;28;20045;-76
2023/04/26 08:15:47;;;;;;;8.20;4.57;;;;;;;;;;5042737;28;20025;-77
2023/04/26 08:18:16;;;;;;;7.57;4.32;;;;;;;;;;5027912;28;20060;-78
2023/04/26 08:20:42;;;;;;;5.38;3.80;;;;;;;;;;5039239;28;20040;-81
2023/04/26 08:23:11;;;;;;;7.88;4.05;;;;;;;;;;5027587;28;20044;-76
2023/04/26 08:25:40;;;;;;;6.60;3.92;;;;;;;;;;5050046;28;20036;-79
2023/04/26 08:28:07;;;;;;;6.30;3.47;;;;;;;;;;4976024;28;20053;-75
2023/04/26 08:30:33;;;;;;;8.50;3.30;;;;;;;;;;5046331;28;20603;-76
2023/04/26 08:33:00;;;;;;;10.88;3.35;;;;;;;;;;5045335;28;20152;-75
2023/04/26 08:35:26;;;;;;;7.82;3.45;;;;;;;;;;5026997;28;20091;-76
2023/04/26 08:37:53;;;;;;;5.93;3.05;;;;;;;;;;5045388;28;20227;-79
2023/04/26 08:40:23;;;;;;;3.57;3.10;;;;;;;;;;5025866;28;20037;-75
2023/04/26 08:42:49;;;;;;;4.80;2.93;;;;;;;;;;5020625;28;20032;-74
2023/04/26 08:45:15;;;;;;;5.18;2.85;;;;;;;;;;5042110;28;20041;-73
2023/04/26 08:47:44;;;;;;;6.75;3.10;;;;;;;;;;5041116;28;20032;-75
2023/04/26 08:50:13;;;;;;;6.50;2.87;;;;;;;;;;5022364;28;20059;-74
2023/04/26 08:52:41;;;;;;;4.47;2.90;;;;;;;;;;5034025;28;20061;-75
2023/04/26 08:55:17;;;;;;;5.68;2.78;;;;;;;;;;5043856;28;20071;-73
2023/04/26 08:57:54;;;;;;;5.37;2.53;;;;;;;;;;5039487;28;20037;-75
2023/04/26 09:00:21;;;;;;;6.38;2.40;;;;;;;;;;5048095;28;20091;-75
2023/04/26 09:02:52;;;;;;;4.70;2.72;;;;;;;;;;5042949;28;20030;-74
2023/04/26 09:05:26;;;;;;;6.53;2.40;;;;;;;;;;5036108;28;20080;-75
2023/04/26 09:07:56;;;;;;;6.68;3.00;;;;;;;;;;5006944;28;20033;-73
2023/04/26 09:10:24;;;;;;;6.85;2.75;;;;;;;;;;5022245;28;20156;-75
2023/04/26 09:12:53;;;;;;;7.93;2.47;;;;;;;;;;5038174;28;20505;-75
2023/04/26 09:15:21;;;;;;;8.35;2.70;;;;;;;;;;5031020;28;20886;-75
2023/04/26 09:17:48;;;;;;;6.55;3.10;;;;;;;;;;5025861;28;20048;-75
2023/04/26 09:20:26;;;;;;;4.53;2.20;;;;;;;;;;5037466;28;20078;-76
2023/04/26 09:23:02;;;;;;;6.53;2.67;;;;;;;;;;5020706;28;20575;-76
2023/04/26 09:25:30;;;;;;;6.75;2.47;;;;;;;;;;5035708;28;20039;-76
2023/04/26 09:27:56;;;;;;;5.93;2.30;;;;;;;;;;5027375;28;20032;-76
2023/04/26 09:30:22;;;;;;;6.00;2.45;;;;;;;;;;5043170;28;20040;-75
2023/04/26 09:33:02;;;;;;;6.40;3.15;;;;;;;;;;5024846;28;20048;-77
2023/04/26 09:35:56;;;;;;;10.18;2.40;;;;;;;;;;5031648;28;20756;-76
2023/04/26 09:38:22;;;;;;;4.47;2.50;;;;;;;;;;5015609;28;20041;-74
2023/04/26 09:40:49;;;;;;;5.68;2.75;;;;;;;;;;5026405;28;20037;-75
2023/04/26 09:43:21;;;;;;;5.70;2.20;;;;;;;;;;5028214;28;20075;-75
2023/04/26 09:45:55;;;;;;;4.07;1.92;;;;;;;;;;5045651;28;20029;-76
2023/04/26 09:48:33;;;;;;;6.03;2.30;;;;;;;;;;5026817;28;20352;-76
2023/04/26 09:51:01;;;;;;;7.85;2.00;;;;;;;;;;5018174;28;20035;-75
2023/04/26 09:53:38;;;;;;;3.47;1.45;;;;;;;;;;5021366;28;20779;-75
2023/04/26 09:56:10;;;;;;;2.80;1.75;;;;;;;;;;5044501;28;20024;-75
2023/04/26 09:59:01;;;;;;;5.70;1.60;;;;;;;;;;5045969;28;20051;-77
2023/04/26 10:01:28;;;;;;;2.78;1.58;;;;;;;;;;5048208;28;20037;-76
2023/04/26 10:04:00;;;;;;;3.67;1.70;;;;;;;;;;5030374;28;20037;-75
2023/04/26 10:06:28;;;;;;;5.57;1.70;;;;;;;;;;5028418;28;20044;-75
2023/04/26 10:08:55;;;;;;;1.95;1.20;;;;;;;;;;5026729;28;20066;-76
2023/04/26 10:11:21;;;;;;;1.58;1.48;;;;;;;;;;5037102;28;20033;-77
2023/04/26 10:13:50;;;;;;;3.97;1.40;;;;;;;;;;5043706;28;20048;-74
2023/04/26 10:16:15;;;;;;;3.83;1.45;;;;;;;;;;5040574;28;20040;-76
2023/04/26 10:18:41;;;;;;;2.75;1.70;;;;;;;;;;5017166;28;20032;-74
2023/04/26 10:21:11;;;;;;;4.18;1.30;;;;;;;;;;5037519;28;20404;-75
2023/04/26 10:23:38;;;;;;;4.47;1.88;;;;;;;;;;5025311;28;20025;-76
2023/04/26 10:26:04;;;;;;;4.00;1.40;;;;;;;;;;5025469;28;20056;-74
2023/04/26 10:28:48;;;;;;;2.47;1.30;;;;;;;;;;5018416;28;20030;-76
2023/04/26 10:31:14;;;;;;;3.58;1.48;;;;;;;;;;5021504;28;20030;-75
2023/04/26 10:33:40;;;;;;;9.88;1.90;;;;;;;;;;5036021;28;20102;-75
2023/04/26 10:36:13;;;;;;;3.08;1.20;;;;;;;;;;5032445;28;20032;-77
2023/04/26 10:38:41;;;;;;;3.13;1.10;;;;;;;;;;5032662;28;20152;-75
2023/04/26 10:41:30;;;;;;;4.15;1.40;;;;;;;;;;5019811;28;20032;-76
2023/04/26 10:43:58;;;;;;;5.53;1.90;;;;;;;;;;5020247;28;20029;-79
2023/04/26 10:46:39;;;;;;;4.30;1.15;;;;;;;;;;5040815;28;20029;-77
2023/04/26 10:49:18;;;;;;;4.70;1.70;;;;;;;;;;5023938;28;20024;-77
2023/04/26 10:52:14;;;;;;;3.85;1.88;;;;;;;;;;5043336;28;20659;-77
2023/04/26 10:54:57;;;;;;;2.10;1.30;;;;;;;;;;5034627;28;20458;-77
2023/04/26 10:57:53;;;;;;;5.95;1.80;;;;;;;;;;5006549;28;20033;-77
2023/04/26 11:00:29;;;;;;;5.70;1.92;;;;;;;;;;5003578;28;20045;-77
2023/04/26 11:03:10;;;;;;;3.83;1.38;;;;;;;;;;5038591;28;20446;-77
2023/04/26 11:05:50;;;;;;;4.88;1.58;;;;;;;;;;5039607;28;20138;-76
2023/04/26 11:08:16;;;;;;;4.55;2.00;;;;;;;;;;5036437;28;20048;-77
2023/04/26 11:10:45;;;;;;;4.57;1.23;;;;;;;;;;5035183;28;20037;-77
2023/04/26 11:13:13;;;;;;;2.40;1.48;;;;;;;;;;5021140;28;20048;-76
2023/04/26 11:15:39;;;;;;;5.53;1.60;;;;;;;;;;5020269;28;20079;-76
2023/04/26 11:18:05;;;;;;;6.20;1.30;;;;;;;;;;5025576;28;20021;-78
2023/04/26 11:20:32;;;;;;;5.20;1.40;;;;;;;;;;5043657;28;20383;-75
2023/04/26 11:22:58;;;;;;;5.55;1.55;;;;;;;;;;5056665;28;20017;-79
2023/04/26 11:25:30;;;;;;;6.43;1.25;;;;;;;;;;5042056;28;20095;-74
2023/04/26 11:27:59;;;;;;;4.30;1.98;;;;;;;;;;5046415;28;20039;-76
2023/04/26 11:30:27;;;;;;;4.13;1.58;;;;;;;;;;5055837;28;20032;-75
2023/04/26 11:32:52;;;;;;;3.38;1.38;;;;;;;;;;5046844;28;20050;-77
2023/04/26 11:35:21;;;;;;;1.83;1.15;;;;;;;;;;5026763;28;20600;-76
2023/04/26 11:37:48;;;;;;;3.33;1.20;;;;;;;;;;5043229;28;20040;-74
2023/04/26 11:40:15;;;;;;;3.67;1.30;;;;;;;;;;5022456;28;20063;-75
2023/04/26 11:42:43;;;;;;;3.65;1.25;;;;;;;;;;5023411;28;20420;-77
2023/04/26 11:45:09;;;;;;;5.07;1.48;;;;;;;;;;5021137;28;20726;-77
2023/04/26 11:47:36;;;;;;;3.63;1.35;;;;;;;;;;5028693;28;20039;-76
2023/04/26 11:50:02;;;;;;;4.80;2.00;;;;;;;;;;5019219;28;20032;-75
2023/04/26 11:52:28;;;;;;;6.95;3.05;;;;;;;;;;5022297;28;20032;-78
2023/04/26 11:55:03;;;;;;;3.05;1.67;;;;;;;;;;5029560;28;20783;-77
2023/04/26 11:57:31;;;;;;;3.75;1.30;;;;;;;;;;5020947;28;20043;-77
2023/04/26 12:00:13;;;;;;;5.97;1.67;;;;;;;;;;5028761;28;20374;-77
2023/04/26 12:02:45;;;;;;;3.63;1.10;;;;;;;;;;5030764;28;20032;-77
2023/04/26 12:05:29;;;;;;;3.28;1.40;;;;;;;;;;5041800;28;20033;-75
2023/04/26 12:07:56;;;;;;;3.80;1.85;;;;;;;;;;5006233;28;20047;-76
2023/04/26 12:10:28;;;;;;;5.75;1.42;;;;;;;;;;5024970;28;20033;-77
2023/04/26 12:12:55;;;;;;;3.08;1.50;;;;;;;;;;5030051;28;20122;-75
2023/04/26 12:15:23;;;;;;;2.55;2.03;;;;;;;;;;5041615;28;20037;-76
2023/04/26 12:18:18;;;;;;;4.32;1.38;;;;;;;;;;5026353;28;20031;-76
2023/04/26 12:20:47;;;;;;;2.80;1.92;;;;;;;;;;5025540;28;20076;-76
2023/04/26 12:23:15;;;;;;;3.05;1.77;;;;;;;;;;5042180;28;20504;-76
2023/04/26 12:25:50;;;;;;;3.83;1.48;;;;;;;;;;5027346;28;20029;-76
2023/04/26 12:28:16;;;;;;;3.53;1.15;;;;;;;;;;5023198;28;20474;-75
2023/04/26 12:30:43;;;;;;;4.07;1.40;;;;;;;;;;5028642;28;20513;-76
2023/04/26 12:33:11;;;;;;;4.78;1.65;;;;;;;;;;5037359;28;20056;-76
2023/04/26 12:35:36;;;;;;;3.47;1.45;;;;;;;;;;5021697;28;20043;-77
2023/04/26 12:38:02;;;;;;;4.07;1.40;;;;;;;;;;5028082;28;20409;-77
2023/04/26 12:40:30;;;;;;;4.35;1.33;;;;;;;;;;5036334;28;20037;-75
2023/04/26 12:42:56;;;;;;;7.22;1.60;;;;;;;;;;5041749;28;20033;-77
2023/04/26 12:45:24;;;;;;;1.95;1.42;;;;;;;;;;5009593;28;20121;-75
2023/04/26 12:47:50;;;;;;;1.95;1.30;;;;;;;;;;5038535;28;20439;-77
2023/04/26 12:50:16;;;;;;;3.92;1.40;;;;;;;;;;5032453;28;20096;-76
2023/04/26 12:52:44;;;;;;;3.15;1.30;;;;;;;;;;5042909;28;20028;-77
2023/04/26 12:55:11;;;;;;;3.90;1.38;;;;;;;;;;5025662;28;20434;-77
2023/04/26 12:57:39;;;;;;;3.08;1.40;;;;;;;;;;5043278;28;20552;-77
2023/04/26 13:00:10;;;;;;;4.53;1.40;;;;;;;;;;5041623;28;20786;-76
2023/04/26 13:02:36;;;;;;;5.80;1.55;;;;;;;;;;5027350;28;20108;-77
2023/04/26 13:05:05;;;;;;;8.27;1.60;;;;;;;;;;5025251;28;20044;-76
2023/04/26 13:07:36;;;;;;;3.05;1.20;;;;;;;;;;5021063;28;20033;-76
2023/04/26 13:10:04;;;;;;;2.83;1.20;;;;;;;;;;5042474;28;20032;-76
2023/04/26 13:12:30;;;;;;;4.68;1.17;;;;;;;;;;5025007;28;20112;-77
2023/04/26 13:15:29;;;;;;;2.25;1.20;;;;;;;;;;5042304;28;20067;-76
2023/04/26 13:17:55;;;;;;;3.42;1.10;;;;;;;;;;5024856;28;20029;-78
2023/04/26 13:20:20;;;;;;;2.30;1.40;;;;;;;;;;5026983;28;20503;-79
2023/04/26 13:22:46;;;;;;;3.05;1.00;;;;;;;;;;5036562;28;20729;-77
2023/04/26 13:25:17;;;;;;;2.42;1.33;;;;;;;;;;5039770;28;20142;-77
2023/04/26 13:27:45;;;;;;;3.50;1.42;;;;;;;;;;5043040;28;20076;-78
2023/04/26 13:30:13;;;;;;;4.63;1.60;;;;;;;;;;5033232;28;20029;-77
2023/04/26 13:32:40;;;;;;;5.43;1.38;;;;;;;;;;4991557;28;20054;-79
2023/04/26 13:35:06;;;;;;;13.90;2.67;;;;;;;;;;4991811;28;20030;-75
2023/04/26 13:37:32;;;;;;;3.15;1.15;;;;;;;;;;4998328;28;20044;-76
2023/04/26 13:39:57;;;;;;;4.43;1.90;;;;;;;;;;4999023;28;20029;-77
2023/04/26 13:42:23;;;;;;;5.15;1.45;;;;;;;;;;4999401;28;20061;-78
2023/04/26 13:44:50;;;;;;;5.97;1.70;;;;;;;;;;5004896;28;20033;-77
2023/04/26 13:47:16;;;;;;;3.90;1.38;;;;;;;;;;5003831;28;20072;-75
2023/04/26 13:49:43;;;;;;;2.88;1.30;;;;;;;;;;4988727;28;20069;-76
2023/04/26 13:52:10;;;;;;;3.28;1.52;;;;;;;;;;5002812;28;20096;-78
2023/04/26 13:54:39;;;;;;;4.85;1.55;;;;;;;;;;4999776;28;20060;-77
2023/04/26 13:57:05;;;;;;;5.63;2.70;;;;;;;;;;4995086;28;20034;-77
2023/04/26 13:59:31;;;;;;;6.68;2.05;;;;;;;;;;4994584;28;20196;-77
2023/04/26 14:01:57;;;;;;;3.42;1.83;;;;;;;;;;4997406;28;20067;-77
2023/04/26 14:04:23;;;;;;;5.50;1.20;;;;;;;;;;5001241;28;20032;-77
2023/04/26 14:06:49;;;;;;;3.50;2.10;;;;;;;;;;4999434;28;20104;-76
2023/04/26 14:09:17;;;;;;;3.85;1.33;;;;;;;;;;4992950;28;20124;-77
2023/04/26 14:11:42;;;;;;;3.83;1.92;;;;;;;;;;4996408;28;20466;-76
2023/04/26 14:14:08;;;;;;;7.15;1.98;;;;;;;;;;5002753;28;20119;-76
2023/04/26 14:16:34;;;;;;;3.63;2.28;;;;;;;;;;5001177;28;20041;-77
2023/04/26 14:19:00;;;;;;;4.13;1.60;;;;;;;;;;4993331;28;20353;-77
2023/04/26 14:21:26;;;;;;;4.15;1.13;;;;;;;;;;4991246;28;20124;-77
2023/04/26 14:23:52;;;;;;;6.68;2.28;;;;;;;;;;4994736;28;20491;-75
2023/04/26 14:26:19;;;;;;;22.75;10.02;;;;;;;;;;5005818;28;20295;-76
2023/04/26 14:28:45;;;;;;;4.10;2.15;;;;;;;;;;5005873;28;20036;-75
2023/04/26 14:31:11;;;;;;;5.90;1.73;;;;;;;;;;5007772;28;20029;-76
2023/04/26 14:33:37;;;;;;;4.95;1.60;;;;;;;;;;5038385;28;20079;-75
2023/04/26 14:36:03;;;;;;;7.38;2.03;;;;;;;;;;5041875;28;20025;-76
2023/04/26 14:38:28;;;;;;;7.07;2.00;;;;;;;;;;5023834;28;20052;-76
2023/04/26 14:40:54;;;;;;;3.70;1.40;;;;;;;;;;5042140;28;20116;-75
2023/04/26 14:43:19;;;;;;;4.60;1.33;;;;;;;;;;5045850;28;20017;-75